Pagrindinis puslapis
METAR-TAF:

METAR-TAF

Oro uostai :

Blue River, Britų Kolumbija, Kanada

platuma: 52-08N, ilguma: 119-18W, Aukštis: 679 m

Dabartinis oras

Ataskaita buvo paskelbta 13 valandos ir 36 minutes, ne 00:00 UTC
Vėjas 2 kt iš Rytų/Šiaurės Rytų
Temperatūra 0°C
Drėgmė 59%
Slėgis 1027 hPa
Matomumas: 24.1 km
Su prošvaistėmis ne aukštis 6000 ft
Liūtis kaimynystėje

METAR: CYCP 190000Z 06002KT 15SM VCSH BKN060 M00/M07 A3032 RMK CU6 LAST STFD OBS/NEXT 191400Z SLP315

Laikas: 05:36 (13:36 UTC)


TAF: trūkstamas

Orai ataskaitas ir orų prognozės (METAR, TAF).

turimą stotys yra geltonos ir raudonos taškus žemėlapyje.

Perkelti pele per norėdami pamatyti stoties vardą.

Tada spustelėkite, norėdami matyti oro stebėjimo ir prognozės.

Norėdami pakeisti žemėlapį: spustelėkite ant žalios mygtukų su juodo kryžiaus žemyn,; žalią mygtuką su brūkšneliu, jei norite nutolinti; arba žalių rodyklių gretimoms žemėlapius.


METAR-TAF: